This is the latest recevied weather packets stored in our database for station/object AD0YN. If no packets are shown the sender has not sent any weather packets the latest 10 day(s).
| Time | Temp. | Humidity | Pressure | Rain* | Wind** | Luminosity | Snow |
|---|---|---|---|---|---|---|---|
| 1777424588 | 14.44° C | 63% | 1013.9 hPa | 0 mm | - | 4 W/m² | - |
| 1777424283 | 14.44° C | 63% | 1013.8 hPa | 0 mm | - | 7 W/m² | - |
| 1777423980 | 15° C | 63% | 1013.7 hPa | 0 mm | - | 11 W/m² | - |
| 1777423677 | 15° C | 63% | 1013.6 hPa | 0 mm | - | 15 W/m² | - |
| 1777423373 | 15.56° C | 60% | 1013.6 hPa | 0 mm | - | 22 W/m² | - |
| 1777423073 | 15.56° C | 62% | 1013.3 hPa | 0 mm | - | 28 W/m² | - |
| 1777422768 | 15.56° C | 62% | 1013.3 hPa | 0 mm | - | 35 W/m² | - |
| 1777422464 | 15.56° C | 64% | 1013.3 hPa | 0 mm | - | 44 W/m² | - |
| 1777422159 | 15.56° C | 65% | 1013.1 hPa | 0 mm | - | 43 W/m² | - |
| 1777421858 | 15.56° C | 65% | 1013.3 hPa | 0 mm | - | 37 W/m² | - |
| 1777421554 | 15.56° C | 68% | 1013.1 hPa | 0 mm | - | 39 W/m² | - |
| 1777421250 | 15.56° C | 64% | 1013.2 hPa | 0 mm | - | 46 W/m² | - |
| 1777420947 | 15.56° C | 65% | 1013.4 hPa | 0 mm | - | 50 W/m² | - |
| 1777420643 | 16.11° C | 65% | 1013.2 hPa | 0 mm | - | 55 W/m² | - |
| 1777420340 | 16.11° C | 61% | 1013.5 hPa | 0 mm | - | 67 W/m² | - |
| 1777420035 | 16.11° C | 62% | 1013.3 hPa | 0 mm | - | 67 W/m² | - |
| 1777419732 | 16.67° C | 62% | 1013.4 hPa | 0 mm | - | 78 W/m² | - |
| 1777419430 | 16.67° C | 61% | 1013.4 hPa | 0 mm | - | 111 W/m² | - |
| 1777419129 | 16.67° C | 58% | 1013.4 hPa | 0 mm | - | 164 W/m² | - |
| 1777418829 | 16.67° C | 62% | 1013.3 hPa | 0 mm | - | 117 W/m² | - |
| 1777418526 | 16.67° C | 61% | 1013.3 hPa | 0 mm | - | 123 W/m² | - |
| 1777418222 | 16.67° C | 60% | 1013.4 hPa | 0 mm | - | 120 W/m² | - |
| 1777417918 | 16.67° C | 59% | 1013.3 hPa | 0 mm | - | 127 W/m² | - |
| 1777417614 | 16.67° C | 60% | 1013.2 hPa | 0 mm | - | 150 W/m² | - |
| 1777417310 | 16.67° C | 58% | 1013.2 hPa | 0 mm | - | 198 W/m² | - |
* Rain latest hour (hover to see other rain measurements)
** Current wind speed in m/s (hover to see current wind gust speed)